createdAt,value
2018-09-11T00:01:15.552Z,100.00
2018-09-11T00:03:43.792Z,100.00
2018-09-11T00:06:12.280Z,100.00
2018-09-11T00:08:40.512Z,100.00
2018-09-11T00:11:08.684Z,100.00
2018-09-11T00:13:36.962Z,100.00
2018-09-11T00:16:05.460Z,100.00
2018-09-11T00:18:33.691Z,100.00
2018-09-11T00:21:01.876Z,100.00
2018-09-11T00:23:30.166Z,100.00
2018-09-11T00:25:58.585Z,100.00
2018-09-11T00:28:26.763Z,100.00
2018-09-11T00:30:55.124Z,100.00
2018-09-11T00:33:23.661Z,100.00
2018-09-11T00:35:51.866Z,100.00
2018-09-11T00:38:20.057Z,100.00
2018-09-11T00:40:48.293Z,100.00
2018-09-11T00:43:16.465Z,100.00
2018-09-11T00:45:44.981Z,100.00
2018-09-11T00:48:13.153Z,100.00
2018-09-11T00:50:41.391Z,100.00
2018-09-11T00:53:09.572Z,100.00
2018-09-11T00:55:37.741Z,100.00
2018-09-11T00:58:05.992Z,100.00
2018-09-11T01:00:34.203Z,100.00
2018-09-11T01:03:02.501Z,100.00
2018-09-11T01:05:30.743Z,100.00
2018-09-11T01:07:58.936Z,100.00
2018-09-11T01:10:27.100Z,100.00
2018-09-11T01:12:55.589Z,100.00
2018-09-11T01:15:23.854Z,100.00
2018-09-11T01:17:52.042Z,100.00
2018-09-11T01:20:20.290Z,100.00
2018-09-11T01:22:48.477Z,100.00
2018-09-11T01:25:16.749Z,100.00
2018-09-11T01:27:44.925Z,100.00
2018-09-11T01:30:17.475Z,100.00
2018-09-11T01:32:45.998Z,100.00
2018-09-11T01:35:14.597Z,100.00
2018-09-11T01:37:42.828Z,100.00
2018-09-11T01:40:11.077Z,100.00
2018-09-11T01:42:39.299Z,100.00
2018-09-11T01:45:07.738Z,100.00
2018-09-11T01:47:36.066Z,100.00
2018-09-11T01:50:04.375Z,100.00
2018-09-11T01:52:32.749Z,100.00
2018-09-11T01:55:00.941Z,100.00
2018-09-11T01:57:29.152Z,100.00
2018-09-11T01:59:57.352Z,100.00
2018-09-11T02:02:25.545Z,100.00
2018-09-11T02:04:54.138Z,100.00
2018-09-11T02:07:22.331Z,100.00
2018-09-11T02:09:50.889Z,100.00
2018-09-11T02:12:19.116Z,100.00
2018-09-11T02:14:47.310Z,100.00
2018-09-11T02:17:15.483Z,100.00
2018-09-11T02:19:43.670Z,100.00
2018-09-11T02:22:11.953Z,100.00
2018-09-11T02:24:40.398Z,100.00
2018-09-11T02:27:08.672Z,100.00
2018-09-11T02:29:36.852Z,100.00
2018-09-11T02:32:05.238Z,100.00
2018-09-11T02:34:33.775Z,100.00
2018-09-11T02:37:01.952Z,100.00
2018-09-11T02:39:30.129Z,100.00
2018-09-11T02:41:58.631Z,100.00
2018-09-11T02:44:26.816Z,100.00
2018-09-11T02:46:54.995Z,100.00
2018-09-11T02:49:23.177Z,100.00
2018-09-11T02:51:51.360Z,100.00
2018-09-11T02:54:19.898Z,100.00
2018-09-11T02:56:48.086Z,100.00
2018-09-11T02:59:16.293Z,100.00
2018-09-11T03:01:44.463Z,100.00
2018-09-11T03:04:12.731Z,100.00
2018-09-11T03:06:40.925Z,100.00
2018-09-11T03:09:09.173Z,100.00
2018-09-11T03:11:37.367Z,100.00
2018-09-11T03:14:05.683Z,100.00
2018-09-11T03:16:33.856Z,100.00
2018-09-11T03:19:02.156Z,100.00
2018-09-11T03:21:30.257Z,100.00
2018-09-11T03:23:58.425Z,100.00
2018-09-11T03:26:26.594Z,100.00
2018-09-11T03:28:55.025Z,100.00
2018-09-11T03:31:23.660Z,100.00
2018-09-11T03:33:51.831Z,100.00
2018-09-11T03:36:20.456Z,100.00
2018-09-11T03:38:48.754Z,100.00
2018-09-11T03:41:16.936Z,100.00
2018-09-11T03:43:45.144Z,100.00
2018-09-11T03:46:13.330Z,100.00
2018-09-11T03:48:41.530Z,100.00
2018-09-11T03:51:09.771Z,100.00
2018-09-11T03:53:37.953Z,100.00
2018-09-11T03:56:07.441Z,100.00
2018-09-11T03:58:35.630Z,100.00
2018-09-11T04:01:03.818Z,100.00
2018-09-11T04:03:31.995Z,100.00
2018-09-11T04:06:00.385Z,100.00
2018-09-11T04:08:28.629Z,100.00
2018-09-11T04:10:56.797Z,100.00
2018-09-11T04:13:24.984Z,100.00
2018-09-11T04:15:53.610Z,100.00
2018-09-11T04:18:21.792Z,100.00
2018-09-11T04:20:50.338Z,100.00
2018-09-11T04:23:18.909Z,100.00
2018-09-11T04:25:47.149Z,100.00
2018-09-11T04:28:15.354Z,100.00
2018-09-11T04:30:43.528Z,100.00
2018-09-11T04:33:11.714Z,100.00
2018-09-11T04:35:40.118Z,100.00
2018-09-11T04:38:08.550Z,100.00
2018-09-11T04:40:36.724Z,100.00
2018-09-11T04:43:05.136Z,100.00
2018-09-11T04:45:33.330Z,100.00
2018-09-11T04:48:01.550Z,100.00
2018-09-11T04:50:29.728Z,100.00
2018-09-11T04:52:57.905Z,100.00
2018-09-11T04:55:26.194Z,100.00
2018-09-11T04:57:54.467Z,100.00
2018-09-11T05:00:22.729Z,100.00
2018-09-11T05:02:50.902Z,100.00
2018-09-11T05:05:19.102Z,100.00
2018-09-11T05:07:47.365Z,100.00
2018-09-11T05:10:15.781Z,100.00
2018-09-11T05:12:44.035Z,100.00
2018-09-11T05:15:12.307Z,100.00
2018-09-11T05:17:40.493Z,100.00
2018-09-11T05:20:08.707Z,100.00
2018-09-11T05:22:36.881Z,100.00
2018-09-11T05:25:05.089Z,100.00
2018-09-11T05:27:33.336Z,100.00
2018-09-11T05:30:01.533Z,100.00
2018-09-11T05:32:29.697Z,100.00
2018-09-11T05:34:57.905Z,100.00
2018-09-11T05:37:26.268Z,100.00
2018-09-11T05:39:54.438Z,100.00
2018-09-11T05:42:22.934Z,100.00
2018-09-11T05:44:51.231Z,100.00
2018-09-11T05:47:19.592Z,100.00
2018-09-11T05:49:47.994Z,100.00
2018-09-11T05:52:16.182Z,100.00
2018-09-11T05:54:44.621Z,100.00
2018-09-11T05:57:12.813Z,100.00
2018-09-11T05:59:41.048Z,100.00
2018-09-11T06:02:09.346Z,100.00
2018-09-11T06:04:37.530Z,100.00
2018-09-11T06:07:05.704Z,100.00
2018-09-11T06:09:33.985Z,100.00
2018-09-11T06:12:02.197Z,100.00
2018-09-11T06:14:30.405Z,100.00
2018-09-11T06:16:58.681Z,100.00
2018-09-11T06:19:26.903Z,100.00
2018-09-11T06:21:55.331Z,100.00
2018-09-11T06:24:23.504Z,100.00
2018-09-11T06:26:51.696Z,100.00
2018-09-11T06:29:19.973Z,100.00
2018-09-11T06:31:48.114Z,100.00
2018-09-11T06:34:16.328Z,100.00
2018-09-11T06:36:44.580Z,100.00
2018-09-11T06:39:12.752Z,100.00
2018-09-11T06:41:40.932Z,100.00
2018-09-11T06:44:09.124Z,100.00
2018-09-11T06:46:37.392Z,100.00
2018-09-11T06:49:05.894Z,100.00
2018-09-11T06:51:34.162Z,100.00
2018-09-11T06:54:02.426Z,100.00
2018-09-11T06:56:31.013Z,100.00
2018-09-11T06:58:59.241Z,100.00
2018-09-11T07:01:27.645Z,100.00
2018-09-11T07:03:55.833Z,100.00
2018-09-11T07:06:24.113Z,100.00
2018-09-11T07:08:52.271Z,100.00
2018-09-11T07:11:20.469Z,100.00
2018-09-11T07:13:48.739Z,100.00
2018-09-11T07:16:16.959Z,100.00
2018-09-11T07:18:45.335Z,100.00
2018-09-11T07:21:13.578Z,100.00
2018-09-11T07:23:41.809Z,100.00
2018-09-11T07:26:10.536Z,100.00
2018-09-11T07:28:38.686Z,100.00
2018-09-11T07:31:07.028Z,100.00
2018-09-11T07:33:35.249Z,100.00
2018-09-11T07:36:03.437Z,100.00
2018-09-11T07:38:31.605Z,100.00
2018-09-11T07:40:59.951Z,98.96
2018-09-11T07:43:28.141Z,98.71
2018-09-11T07:45:56.322Z,98.05
2018-09-11T07:48:24.744Z,93.42
2018-09-11T07:50:52.914Z,89.95
2018-09-11T07:53:21.211Z,91.65
2018-09-11T07:55:49.744Z,94.60
2018-09-11T07:58:18.033Z,97.65
2018-09-11T08:00:52.896Z,96.81
2018-09-11T08:03:21.378Z,100.00
2018-09-11T08:05:50.071Z,100.00
2018-09-11T08:08:18.304Z,94.89
2018-09-11T08:10:46.802Z,100.00
2018-09-11T08:13:14.974Z,95.82
2018-09-11T08:15:43.158Z,99.51
2018-09-11T08:18:11.333Z,97.45
2018-09-11T08:20:39.585Z,96.29
2018-09-11T08:23:07.855Z,100.00
2018-09-11T08:25:36.115Z,87.13
2018-09-11T08:28:04.394Z,87.70
2018-09-11T08:30:33.150Z,88.37
2018-09-11T08:33:02.477Z,89.22
2018-09-11T08:35:31.023Z,90.83
2018-09-11T08:37:59.557Z,91.77
2018-09-11T08:40:27.722Z,86.84
2018-09-11T08:42:55.998Z,92.20
2018-09-11T08:45:24.526Z,88.32
2018-09-11T08:47:52.705Z,87.26
2018-09-11T08:50:20.851Z,86.45
2018-09-11T08:52:49.172Z,84.11
2018-09-11T08:55:17.385Z,84.36
2018-09-11T08:57:45.831Z,83.19
2018-09-11T09:00:14.063Z,83.72
2018-09-11T09:02:42.531Z,82.48
2018-09-11T09:05:10.791Z,85.79
2018-09-11T09:07:38.981Z,80.11
2018-09-11T09:10:07.474Z,78.61
2018-09-11T09:12:35.652Z,78.35
2018-09-11T09:15:03.839Z,79.51
2018-09-11T09:17:32.025Z,75.81
2018-09-11T09:20:00.237Z,75.59
2018-09-11T09:22:28.531Z,78.55
2018-09-11T09:24:56.794Z,78.90
2018-09-11T09:27:25.040Z,80.86
2018-09-11T09:29:53.418Z,75.84
2018-09-11T09:32:21.623Z,71.75
2018-09-11T09:34:49.839Z,72.33
2018-09-11T09:37:18.126Z,74.08
2018-09-11T09:39:46.292Z,74.07
2018-09-11T09:42:14.489Z,71.53
2018-09-11T09:44:42.709Z,75.33
2018-09-11T09:47:10.971Z,72.91
2018-09-11T09:49:39.137Z,70.42
2018-09-11T09:52:07.352Z,68.90
2018-09-11T09:54:35.529Z,67.75
2018-09-11T09:57:03.976Z,65.75
2018-09-11T09:59:32.416Z,61.40
2018-09-11T10:02:02.930Z,60.12
2018-09-11T10:04:33.948Z,60.57
2018-09-11T10:07:02.322Z,58.32
2018-09-11T10:09:30.572Z,58.06
2018-09-11T10:11:58.740Z,57.31
2018-09-11T10:14:27.240Z,58.68
2018-09-11T10:16:55.406Z,56.40
2018-09-11T10:19:23.692Z,53.56
2018-09-11T10:21:51.964Z,53.11
2018-09-11T10:24:20.189Z,50.64
2018-09-11T10:26:48.402Z,50.67
2018-09-11T10:29:16.619Z,47.88
2018-09-11T10:31:44.845Z,50.80
2018-09-11T10:34:13.029Z,48.81
2018-09-11T10:36:41.256Z,47.12
2018-09-11T10:39:09.839Z,46.62
2018-09-11T10:41:38.253Z,44.63
2018-09-11T10:44:06.586Z,44.75
2018-09-11T10:46:34.813Z,40.94
2018-09-11T10:49:02.993Z,31.10
2018-09-11T10:51:31.285Z,23.92
2018-09-11T10:53:59.699Z,23.00
2018-09-11T10:56:27.973Z,24.14
2018-09-11T10:58:56.209Z,21.37
2018-09-11T11:01:24.637Z,20.53
2018-09-11T11:03:52.828Z,18.36
2018-09-11T11:06:21.039Z,18.75
2018-09-11T11:08:49.725Z,21.26
2018-09-11T11:11:18.013Z,18.99
2018-09-11T11:13:46.591Z,20.92
2018-09-11T11:16:14.862Z,20.14
2018-09-11T11:18:43.286Z,18.80
2018-09-11T11:21:11.516Z,18.33
2018-09-11T11:23:40.083Z,22.61
2018-09-11T11:26:08.365Z,17.99
2018-09-11T11:28:36.566Z,17.95
2018-09-11T11:31:04.813Z,16.33
2018-09-11T11:33:33.091Z,17.33
2018-09-11T11:36:01.357Z,17.36
2018-09-11T11:38:29.536Z,17.79
2018-09-11T11:40:57.808Z,17.57
2018-09-11T11:43:26.006Z,22.24
2018-09-11T11:45:54.290Z,23.73
2018-09-11T11:48:22.590Z,25.94
2018-09-11T11:50:50.841Z,23.83
2018-09-11T11:53:19.202Z,25.51
2018-09-11T11:55:47.461Z,24.30
2018-09-11T11:58:15.661Z,25.91
2018-09-11T12:00:43.955Z,26.12
2018-09-11T12:03:12.401Z,23.88
2018-09-11T12:05:40.746Z,27.14
2018-09-11T12:08:09.187Z,26.63
2018-09-11T12:10:37.429Z,27.11
2018-09-11T12:13:05.811Z,27.27
2018-09-11T12:15:33.992Z,27.80
2018-09-11T12:18:02.266Z,22.87
2018-09-11T12:20:30.707Z,27.68
2018-09-11T12:22:58.887Z,30.25
2018-09-11T12:25:27.148Z,26.32
2018-09-11T12:27:55.317Z,23.83
2018-09-11T12:30:23.544Z,23.15
2018-09-11T12:32:51.726Z,26.51
2018-09-11T12:35:20.592Z,25.69
2018-09-11T12:37:49.049Z,23.19
2018-09-11T12:40:17.225Z,21.89
2018-09-11T12:42:45.471Z,22.69
2018-09-11T12:45:13.726Z,20.28
2018-09-11T12:47:42.605Z,22.57
2018-09-11T12:50:10.187Z,23.19
2018-09-11T12:52:38.752Z,19.95
2018-09-11T12:55:06.944Z,19.67
2018-09-11T12:57:35.134Z,18.58
2018-09-11T13:00:03.311Z,17.79
2018-09-11T13:02:31.778Z,19.93
2018-09-11T13:04:59.962Z,20.58
2018-09-11T13:07:28.142Z,22.53
2018-09-11T13:09:56.535Z,17.04
2018-09-11T13:12:24.769Z,18.08
2018-09-11T13:14:53.038Z,18.46
2018-09-11T13:17:21.198Z,17.97
2018-09-11T13:19:49.390Z,15.43
2018-09-11T13:22:17.565Z,15.81
2018-09-11T13:24:45.743Z,18.38
2018-09-11T13:27:13.932Z,19.47
2018-09-11T13:29:42.178Z,21.82
2018-09-11T13:32:10.373Z,19.77
2018-09-11T13:34:38.573Z,19.52
2018-09-11T13:37:06.799Z,20.83
2018-09-11T13:39:34.991Z,17.72
2018-09-11T13:42:03.470Z,22.75
2018-09-11T13:44:31.724Z,18.31
2018-09-11T13:46:59.920Z,16.67
2018-09-11T13:49:28.082Z,18.68
2018-09-11T13:51:56.369Z,18.84
2018-09-11T13:54:24.614Z,17.24
2018-09-11T13:56:52.809Z,16.56
2018-09-11T13:59:21.094Z,17.04
2018-09-11T14:01:49.355Z,21.67
2018-09-11T14:04:17.640Z,22.24
2018-09-11T14:06:45.909Z,18.86
2018-09-11T14:09:15.357Z,17.92
2018-09-11T14:11:44.357Z,22.95
2018-09-11T14:14:13.003Z,20.84
2018-09-11T14:16:41.289Z,19.18
2018-09-11T14:19:10.422Z,24.03
2018-09-11T14:21:38.625Z,20.95
2018-09-11T14:24:06.806Z,18.63
2018-09-11T14:26:35.006Z,18.57
2018-09-11T14:29:03.247Z,21.42
2018-09-11T14:31:31.441Z,21.08
2018-09-11T14:33:59.769Z,20.07
2018-09-11T14:36:27.977Z,19.65
2018-09-11T14:38:56.189Z,17.86
2018-09-11T14:41:24.448Z,18.15
2018-09-11T14:43:52.709Z,19.10
2018-09-11T14:46:20.987Z,18.93
2018-09-11T14:48:49.284Z,21.68
2018-09-11T14:51:17.458Z,23.89
2018-09-11T14:53:45.635Z,25.52
2018-09-11T14:56:13.849Z,28.58
2018-09-11T14:58:42.039Z,29.29
2018-09-11T15:01:10.222Z,30.17
2018-09-11T15:03:38.419Z,30.93
2018-09-11T15:06:07.026Z,31.03
2018-09-11T15:08:35.250Z,32.44
2018-09-11T15:11:03.405Z,32.81
2018-09-11T15:13:31.632Z,31.94
2018-09-11T15:15:59.799Z,33.11
2018-09-11T15:18:28.042Z,32.46
2018-09-11T15:20:56.227Z,33.65
2018-09-11T15:23:24.643Z,33.38
2018-09-11T15:25:52.907Z,33.06
2018-09-11T15:28:21.176Z,35.74
2018-09-11T15:30:49.441Z,35.60
2018-09-11T15:33:18.043Z,35.05
2018-09-11T15:35:46.573Z,34.22
2018-09-11T15:38:14.779Z,34.92
2018-09-11T15:40:43.068Z,35.25
2018-09-11T15:43:11.547Z,35.43
2018-09-11T15:45:40.333Z,35.50
2018-09-11T15:48:08.859Z,36.23
2018-09-11T15:50:37.080Z,35.90
2018-09-11T15:53:05.348Z,34.80
2018-09-11T15:55:33.563Z,35.33
2018-09-11T15:58:01.802Z,37.39
2018-09-11T16:00:30.090Z,36.68
2018-09-11T16:02:58.470Z,36.96
2018-09-11T16:05:26.678Z,36.97
2018-09-11T16:07:54.914Z,37.31
2018-09-11T16:10:23.200Z,38.70
2018-09-11T16:12:51.374Z,36.56
2018-09-11T16:15:19.854Z,36.92
2018-09-11T16:17:48.031Z,37.87
2018-09-11T16:20:17.866Z,36.92
2018-09-11T16:22:46.213Z,39.08
2018-09-11T16:25:14.645Z,38.96
2018-09-11T16:27:43.015Z,35.83
2018-09-11T16:30:11.587Z,37.80
2018-09-11T16:32:39.857Z,38.81
2018-09-11T16:35:10.060Z,39.42
2018-09-11T16:37:38.257Z,40.02
2018-09-11T16:40:06.496Z,40.36
2018-09-11T16:42:34.973Z,39.43
2018-09-11T16:45:03.311Z,40.35
2018-09-11T16:47:31.537Z,41.05
2018-09-11T16:49:59.794Z,40.50
2018-09-11T16:52:29.593Z,41.06
2018-09-11T16:54:59.817Z,42.25
2018-09-11T16:57:27.979Z,42.83
2018-09-11T16:59:56.171Z,43.91
2018-09-11T17:02:24.430Z,43.76
2018-09-11T17:04:52.580Z,44.39
2018-09-11T17:07:21.062Z,45.18
2018-09-11T17:09:49.318Z,45.65
2018-09-11T17:12:17.498Z,46.84
2018-09-11T17:14:46.061Z,47.92
2018-09-11T17:17:15.624Z,47.68
2018-09-11T17:19:44.004Z,47.50
2018-09-11T17:22:12.193Z,48.57
2018-09-11T17:24:40.381Z,49.23
2018-09-11T17:27:09.398Z,50.48
2018-09-11T17:29:38.442Z,51.92
2018-09-11T17:32:06.642Z,52.21
2018-09-11T17:34:34.859Z,53.10
2018-09-11T17:37:03.090Z,53.43
2018-09-11T17:39:31.344Z,54.08
2018-09-11T17:41:59.497Z,54.55
2018-09-11T17:44:27.681Z,56.70
2018-09-11T17:46:56.133Z,56.11
2018-09-11T17:49:24.326Z,57.28
2018-09-11T17:51:52.503Z,59.17
2018-09-11T17:54:20.695Z,60.31
2018-09-11T17:56:49.003Z,60.39
2018-09-11T17:59:17.221Z,60.55
2018-09-11T18:01:52.425Z,60.02
2018-09-11T18:04:20.614Z,61.55
2018-09-11T18:06:49.114Z,61.74
2018-09-11T18:09:17.441Z,62.95
2018-09-11T18:11:45.621Z,63.52
2018-09-11T18:14:13.922Z,63.42
2018-09-11T18:16:42.111Z,64.41
2018-09-11T18:19:10.376Z,65.37
2018-09-11T18:21:38.820Z,66.64
2018-09-11T18:24:07.011Z,69.01
2018-09-11T18:26:35.201Z,70.67
2018-09-11T18:29:03.446Z,72.45
2018-09-11T18:31:31.730Z,73.11
2018-09-11T18:34:00.129Z,76.79
2018-09-11T18:36:28.331Z,78.07
2018-09-11T18:38:56.566Z,80.20
2018-09-11T18:41:24.898Z,81.30
2018-09-11T18:43:53.077Z,82.17
2018-09-11T18:46:21.315Z,84.60
2018-09-11T18:48:49.486Z,89.17
2018-09-11T18:51:17.712Z,86.17
2018-09-11T18:53:46.213Z,86.01
2018-09-11T18:56:14.505Z,88.82
2018-09-11T18:58:42.737Z,91.13
2018-09-11T19:01:11.311Z,95.14
2018-09-11T19:03:39.501Z,100.00
2018-09-11T19:06:07.777Z,100.00
2018-09-11T19:08:36.109Z,100.00
2018-09-11T19:11:04.365Z,100.00
2018-09-11T19:13:32.570Z,100.00
2018-09-11T19:16:00.878Z,100.00
2018-09-11T19:18:29.079Z,100.00
2018-09-11T19:20:57.259Z,100.00
2018-09-11T19:23:25.455Z,100.00
2018-09-11T19:25:53.634Z,100.00
2018-09-11T19:28:22.216Z,100.00
2018-09-11T19:30:50.459Z,100.00
2018-09-11T19:33:18.934Z,100.00
2018-09-11T19:35:47.215Z,100.00
2018-09-11T19:38:15.412Z,100.00
2018-09-11T19:40:43.643Z,100.00
2018-09-11T19:43:11.850Z,100.00
2018-09-11T19:45:40.348Z,100.00
2018-09-11T19:48:08.550Z,100.00
2018-09-11T19:50:36.845Z,100.00
2018-09-11T19:53:05.042Z,100.00
2018-09-11T19:55:33.309Z,100.00
2018-09-11T19:58:01.622Z,100.00
2018-09-11T20:00:29.877Z,100.00
2018-09-11T20:02:58.137Z,100.00
2018-09-11T20:05:26.314Z,100.00
2018-09-11T20:07:54.599Z,100.00
2018-09-11T20:10:22.795Z,100.00
2018-09-11T20:12:51.897Z,100.00
2018-09-11T20:15:20.897Z,100.00
2018-09-11T20:17:49.474Z,100.00
2018-09-11T20:20:18.564Z,100.00
2018-09-11T20:22:47.659Z,100.00
2018-09-11T20:25:16.608Z,100.00
2018-09-11T20:27:45.378Z,100.00
2018-09-11T20:30:14.115Z,100.00
2018-09-11T20:32:43.758Z,100.00
2018-09-11T20:35:12.970Z,100.00
2018-09-11T20:37:41.374Z,100.00
2018-09-11T20:40:10.078Z,100.00
2018-09-11T20:42:39.778Z,100.00
2018-09-11T20:45:08.672Z,100.00
2018-09-11T20:47:37.386Z,100.00
2018-09-11T20:50:06.620Z,100.00
2018-09-11T20:52:35.835Z,100.00
2018-09-11T20:55:05.066Z,100.00
2018-09-11T20:57:34.418Z,100.00
2018-09-11T21:00:03.543Z,100.00
2018-09-11T21:02:32.719Z,100.00
2018-09-11T21:05:01.787Z,100.00
2018-09-11T21:07:31.318Z,100.00
2018-09-11T21:10:00.595Z,100.00
2018-09-11T21:12:29.833Z,100.00
2018-09-11T21:14:58.921Z,100.00
2018-09-11T21:17:27.413Z,100.00
2018-09-11T21:19:57.194Z,100.00
2018-09-11T21:22:26.206Z,100.00
2018-09-11T21:24:55.334Z,100.00
2018-09-11T21:27:24.421Z,100.00
2018-09-11T21:29:53.520Z,100.00
2018-09-11T21:32:22.746Z,100.00
2018-09-11T21:34:52.252Z,100.00
2018-09-11T21:37:21.497Z,100.00
2018-09-11T21:39:51.378Z,100.00
2018-09-11T21:42:20.388Z,100.00
2018-09-11T21:44:49.540Z,100.00
2018-09-11T21:47:19.290Z,100.00
2018-09-11T21:49:48.381Z,100.00
2018-09-11T21:52:18.324Z,100.00
2018-09-11T21:54:46.518Z,100.00
2018-09-11T21:57:14.692Z,100.00
2018-09-11T21:59:42.878Z,100.00
2018-09-11T22:02:11.711Z,100.00
2018-09-11T22:04:40.705Z,100.00
2018-09-11T22:07:10.465Z,100.00
2018-09-11T22:09:38.677Z,100.00
2018-09-11T22:12:07.399Z,100.00
2018-09-11T22:14:36.475Z,100.00
2018-09-11T22:17:05.320Z,100.00
2018-09-11T22:19:35.266Z,100.00
2018-09-11T22:22:04.247Z,100.00
2018-09-11T22:24:33.741Z,100.00
2018-09-11T22:27:02.843Z,100.00
2018-09-11T22:29:31.578Z,100.00
2018-09-11T22:31:59.763Z,100.00
2018-09-11T22:34:28.038Z,100.00
2018-09-11T22:36:56.612Z,100.00
2018-09-11T22:39:24.993Z,100.00
2018-09-11T22:41:53.582Z,100.00
2018-09-11T22:44:21.899Z,100.00
2018-09-11T22:46:50.176Z,100.00
2018-09-11T22:49:18.575Z,100.00
2018-09-11T22:51:46.892Z,100.00
2018-09-11T22:54:15.329Z,100.00
2018-09-11T22:56:43.544Z,100.00
2018-09-11T22:59:11.749Z,100.00
2018-09-11T23:01:40.173Z,100.00
2018-09-11T23:04:08.640Z,100.00
2018-09-11T23:06:37.193Z,100.00
2018-09-11T23:09:07.937Z,100.00
2018-09-11T23:11:36.261Z,100.00
2018-09-11T23:14:04.441Z,100.00
2018-09-11T23:16:32.653Z,100.00
2018-09-11T23:19:00.849Z,100.00
2018-09-11T23:21:29.019Z,100.00
2018-09-11T23:23:57.324Z,100.00
2018-09-11T23:26:25.612Z,100.00
2018-09-11T23:28:53.908Z,100.00
2018-09-11T23:31:22.202Z,100.00
2018-09-11T23:33:50.462Z,100.00
2018-09-11T23:36:18.762Z,100.00
2018-09-11T23:38:46.984Z,100.00
2018-09-11T23:41:15.370Z,100.00
2018-09-11T23:43:43.732Z,100.00
2018-09-11T23:46:11.901Z,100.00
2018-09-11T23:48:40.130Z,100.00
2018-09-11T23:51:08.370Z,100.00
2018-09-11T23:53:36.546Z,100.00
2018-09-11T23:56:04.750Z,100.00
2018-09-11T23:58:32.977Z,100.00
